25°C Temp
15°C Rocío
54% Humedad
Temperatura
5 KM/H
3 MPH
3 KTS
260°
Oeste

Viento
Tormentas
Presión 1011.92 (hPa) - 29.88 (in)
Visibilidad 6.2 (mi) - 10.0 (km)

Condiciones Actuales
LEZL
Distancia 8(km)
Metar :LEZL 221830Z 26003KT 9999 VCTS SCT060CB 25/15 Q1012 NOSIG
22-09-2021 20:30:00

Aeropuerto
  Metar Datos API de Aviación proporcionados por https://www.checkwx.com/ PHP scripts por weather34.com Modificados por tiempoensevilla.es ©2021